createdAt,value
2018-07-17T00:00:44.631Z,63.00
2018-07-17T00:03:11.629Z,63.60
2018-07-17T00:08:05.728Z,64.00
2018-07-17T00:10:32.712Z,63.90
2018-07-17T00:13:00.577Z,66.60
2018-07-17T00:15:27.562Z,67.60
2018-07-17T00:17:54.550Z,66.50
2018-07-17T00:20:21.608Z,62.00
2018-07-17T00:22:48.765Z,63.40
2018-07-17T00:25:15.758Z,65.40
2018-07-17T00:27:42.796Z,64.40
2018-07-17T00:30:09.786Z,64.30
2018-07-17T00:35:15.311Z,64.60
2018-07-17T00:40:10.213Z,66.60
2018-07-17T00:42:38.668Z,72.30
2018-07-17T00:45:06.462Z,75.90
2018-07-17T00:47:33.456Z,75.70
2018-07-17T00:50:00.490Z,76.80
2018-07-17T00:52:27.490Z,76.30
2018-07-17T00:54:55.421Z,75.60
2018-07-17T00:57:22.477Z,75.60
2018-07-17T00:59:49.454Z,76.10
2018-07-17T01:02:16.448Z,74.70
2018-07-17T01:04:43.485Z,72.90
2018-07-17T01:07:10.473Z,68.70
2018-07-17T01:09:37.453Z,70.30
2018-07-17T01:12:04.539Z,69.30
2018-07-17T01:14:31.489Z,69.70
2018-07-17T01:16:59.427Z,71.00
2018-07-17T01:19:26.464Z,71.10
2018-07-17T01:24:20.519Z,72.80
2018-07-17T01:26:47.547Z,74.40
2018-07-17T01:29:15.419Z,73.10
2018-07-17T01:31:42.406Z,74.20
2018-07-17T01:34:10.282Z,73.90
2018-07-17T01:36:37.273Z,74.20
2018-07-17T01:41:42.767Z,74.30
2018-07-17T01:46:36.837Z,74.40
2018-07-17T01:49:03.867Z,74.80
2018-07-17T01:51:31.694Z,74.50
2018-07-17T01:53:58.696Z,73.90
2018-07-17T01:56:25.757Z,77.50
2018-07-17T01:58:52.738Z,79.10
2018-07-17T02:01:19.727Z,78.40
2018-07-17T02:03:47.655Z,78.70
2018-07-17T02:06:14.645Z,79.40
2018-07-17T02:08:41.634Z,81.20
2018-07-17T02:11:08.674Z,81.60
2018-07-17T02:13:35.656Z,81.70
2018-07-17T02:16:02.651Z,81.20
2018-07-17T02:18:32.615Z,81.40
2018-07-17T02:20:59.632Z,81.70
2018-07-17T02:23:26.616Z,81.20
2018-07-17T02:25:53.711Z,81.70
2018-07-17T02:28:20.675Z,82.80
2018-07-17T02:30:47.661Z,83.00
2018-07-17T02:33:14.697Z,82.60
2018-07-17T02:35:41.689Z,82.50
2018-07-17T02:38:08.672Z,82.90
2018-07-17T02:40:35.740Z,81.70
2018-07-17T02:43:03.671Z,81.00
2018-07-17T02:45:30.658Z,80.40
2018-07-17T02:47:57.713Z,80.10
2018-07-17T02:50:24.699Z,80.10
2018-07-17T02:52:51.693Z,80.60
2018-07-17T02:55:19.183Z,80.90
2018-07-17T02:57:46.160Z,80.90
2018-07-17T03:02:53.696Z,80.80
2018-07-17T03:05:20.712Z,81.80
2018-07-17T03:07:47.739Z,82.10
2018-07-17T03:10:14.776Z,83.40
2018-07-17T03:12:41.759Z,83.80
2018-07-17T03:15:08.754Z,84.50
2018-07-17T03:17:36.636Z,85.70
2018-07-17T03:20:03.623Z,86.00
2018-07-17T03:22:30.615Z,85.10
2018-07-17T03:24:57.690Z,85.70
2018-07-17T03:27:24.679Z,86.70
2018-07-17T03:29:51.661Z,87.40
2018-07-17T03:32:18.690Z,88.50
2018-07-17T03:34:45.682Z,88.80
2018-07-17T03:37:12.669Z,89.40
2018-07-17T03:39:39.707Z,90.30
2018-07-17T03:44:33.784Z,91.20
2018-07-17T03:47:00.847Z,90.40
2018-07-17T03:51:55.867Z,90.70
2018-07-17T03:54:22.902Z,91.00
2018-07-17T03:59:16.974Z,91.10
2018-07-17T04:01:44.015Z,90.70
2018-07-17T04:04:11.024Z,91.40
2018-07-17T04:06:37.992Z,90.50
2018-07-17T04:09:05.226Z,89.60
2018-07-17T04:11:32.976Z,89.70
2018-07-17T04:13:59.965Z,88.80
2018-07-17T04:16:26.994Z,88.90
2018-07-17T04:21:32.521Z,87.50
2018-07-17T04:24:00.460Z,86.10
2018-07-17T04:26:27.458Z,85.90
2018-07-17T04:28:54.520Z,85.00
2018-07-17T04:31:21.505Z,85.40
2018-07-17T04:36:16.457Z,87.00
2018-07-17T04:38:43.485Z,86.40
2018-07-17T04:41:11.354Z,87.40
2018-07-17T04:43:38.421Z,86.40
2018-07-17T04:46:05.413Z,85.40
2018-07-17T04:48:32.408Z,85.40
2018-07-17T04:50:59.452Z,84.90
2018-07-17T04:53:26.464Z,85.80
2018-07-17T04:55:53.464Z,85.70
2018-07-17T04:58:20.557Z,86.20
2018-07-17T05:00:47.563Z,86.20
2018-07-17T05:03:14.576Z,86.30
2018-07-17T05:05:41.651Z,85.80
2018-07-17T05:08:08.670Z,84.80
2018-07-17T05:10:35.708Z,85.30
2018-07-17T05:13:02.873Z,85.00
2018-07-17T05:15:29.782Z,86.60
2018-07-17T05:17:57.222Z,84.90
2018-07-17T05:20:24.259Z,84.50
2018-07-17T05:25:29.781Z,84.30
2018-07-17T05:27:56.778Z,80.90
2018-07-17T05:30:23.774Z,82.60
2018-07-17T05:32:50.808Z,83.80
2018-07-17T05:35:17.893Z,83.40
2018-07-17T05:37:44.823Z,82.10
2018-07-17T05:40:11.895Z,82.00
2018-07-17T05:42:38.895Z,83.50
2018-07-17T05:45:05.885Z,85.00
2018-07-17T05:47:33.863Z,84.30
2018-07-17T05:50:00.851Z,78.40
2018-07-17T05:52:27.844Z,77.10
2018-07-17T05:57:22.004Z,74.40
2018-07-17T05:59:49.028Z,73.30
2018-07-17T06:02:16.058Z,74.70
2018-07-17T06:04:43.053Z,72.50
2018-07-17T06:07:10.501Z,76.20
2018-07-17T06:09:37.573Z,74.30
2018-07-17T06:14:32.469Z,65.50
2018-07-17T06:22:25.131Z,70.00
2018-07-17T06:24:52.109Z,69.00
2018-07-17T06:29:46.613Z,69.00
2018-07-17T06:32:13.597Z,71.00
2018-07-17T06:34:41.530Z,69.80
2018-07-17T06:37:08.565Z,70.80
2018-07-17T06:39:36.479Z,69.40
2018-07-17T06:42:03.465Z,65.50
2018-07-17T06:47:10.995Z,65.60
2018-07-17T06:49:38.021Z,67.40
2018-07-17T06:52:05.002Z,67.70
2018-07-17T06:54:31.990Z,68.10
2018-07-17T06:56:59.072Z,67.00
2018-07-17T06:59:26.069Z,67.10
2018-07-17T07:01:53.063Z,66.90
2018-07-17T07:04:20.084Z,65.40
2018-07-17T07:06:47.065Z,64.90
2018-07-17T07:09:14.045Z,64.30
2018-07-17T07:11:41.073Z,64.90
2018-07-17T07:14:08.070Z,67.00
2018-07-17T07:16:35.054Z,65.90
2018-07-17T07:19:02.085Z,67.50
2018-07-17T07:21:29.073Z,66.80
2018-07-17T07:23:56.061Z,65.60
2018-07-17T07:26:23.124Z,65.90
2018-07-17T07:28:50.110Z,67.30
2018-07-17T07:31:17.104Z,69.00
2018-07-17T07:33:44.161Z,68.40
2018-07-17T07:36:11.141Z,69.50
2018-07-17T07:38:38.128Z,67.30
2018-07-17T07:41:05.157Z,63.10
2018-07-17T07:43:32.145Z,61.00
2018-07-17T07:45:59.136Z,61.30
2018-07-17T07:48:26.190Z,58.60
2018-07-17T07:50:53.172Z,55.90
2018-07-17T07:53:20.175Z,54.10
2018-07-17T07:55:47.212Z,57.30
2018-07-17T07:58:14.209Z,59.00
2018-07-17T08:00:41.215Z,56.70
2018-07-17T08:03:08.260Z,53.30
2018-07-17T08:08:13.783Z,51.30
2018-07-17T08:10:40.769Z,47.20
2018-07-17T08:13:07.756Z,42.50
2018-07-17T08:15:34.846Z,42.20
2018-07-17T08:18:01.835Z,38.10
2018-07-17T08:20:28.817Z,38.00
2018-07-17T08:22:55.852Z,35.00
2018-07-17T08:25:22.838Z,35.80
2018-07-17T08:27:50.046Z,34.10
2018-07-17T08:30:17.643Z,35.50
2018-07-17T08:32:44.625Z,37.10
2018-07-17T08:35:11.650Z,35.70
2018-07-17T08:37:38.698Z,34.70
2018-07-17T08:42:32.755Z,34.50
2018-07-17T08:44:59.785Z,34.40
2018-07-17T08:47:26.797Z,32.60
2018-07-17T08:49:53.765Z,29.80
2018-07-17T08:52:20.820Z,29.90
2018-07-17T08:54:47.821Z,26.00
2018-07-17T08:57:14.796Z,27.30
2018-07-17T08:59:41.824Z,27.70
2018-07-17T09:02:08.808Z,27.60
2018-07-17T09:04:35.794Z,27.80
2018-07-17T09:09:29.904Z,26.80
2018-07-17T09:11:56.889Z,25.50
2018-07-17T09:14:23.972Z,26.20
2018-07-17T09:16:50.970Z,25.10
2018-07-17T09:19:17.974Z,27.10
2018-07-17T09:21:45.010Z,28.10
2018-07-17T09:26:52.529Z,27.30
2018-07-17T09:29:19.511Z,23.50
2018-07-17T09:31:46.500Z,24.20
2018-07-17T09:34:13.523Z,24.90
2018-07-17T09:36:40.508Z,23.30
2018-07-17T09:39:07.497Z,22.80
2018-07-17T09:41:34.549Z,24.00
2018-07-17T09:44:02.344Z,24.50
2018-07-17T09:46:29.341Z,23.80
2018-07-17T09:48:56.379Z,25.50
2018-07-17T09:51:23.353Z,24.70
2018-07-17T09:53:50.344Z,26.10
2018-07-17T09:56:18.024Z,25.70
2018-07-17T09:58:45.009Z,25.70
2018-07-17T10:01:12.002Z,25.80
2018-07-17T10:03:39.030Z,27.10
2018-07-17T10:08:33.089Z,26.50
2018-07-17T10:11:00.124Z,27.70
2018-07-17T10:13:27.123Z,29.20
2018-07-17T10:15:54.108Z,29.80
2018-07-17T10:18:21.161Z,26.70
2018-07-17T10:20:48.157Z,25.60
2018-07-17T10:25:42.288Z,29.70
2018-07-17T10:28:09.272Z,28.40
2018-07-17T10:30:36.281Z,26.90
2018-07-17T10:33:04.153Z,28.80
2018-07-17T10:35:31.154Z,29.40
2018-07-17T10:37:58.145Z,28.70
2018-07-17T10:40:25.207Z,26.10
2018-07-17T10:45:32.708Z,27.20
2018-07-17T10:47:59.692Z,26.00
2018-07-17T10:50:26.684Z,27.10
2018-07-17T10:52:53.707Z,26.10
2018-07-17T10:55:20.696Z,28.20
2018-07-17T10:57:47.676Z,27.30
2018-07-17T11:00:14.747Z,23.70
2018-07-17T11:02:41.739Z,27.30
2018-07-17T11:05:08.724Z,25.20
2018-07-17T11:07:35.755Z,26.30
2018-07-17T11:10:02.736Z,24.20
2018-07-17T11:12:29.724Z,24.30
2018-07-17T11:14:56.797Z,21.10
2018-07-17T11:17:23.782Z,22.20
2018-07-17T11:19:50.769Z,21.80
2018-07-17T11:27:11.977Z,22.60
2018-07-17T11:29:39.016Z,21.90
2018-07-17T11:32:06.016Z,22.80
2018-07-17T11:34:32.984Z,24.40
2018-07-17T11:37:00.037Z,24.90
2018-07-17T11:39:27.025Z,26.00
2018-07-17T11:44:21.132Z,22.20
2018-07-17T11:46:48.117Z,16.10
2018-07-17T11:49:15.104Z,16.30
2018-07-17T11:51:42.136Z,17.60
2018-07-17T11:54:09.134Z,17.50
2018-07-17T11:56:36.133Z,17.70
2018-07-17T11:59:03.233Z,17.70
2018-07-17T12:01:30.180Z,16.20
2018-07-17T12:11:29.842Z,17.90
2018-07-17T12:13:56.904Z,18.40
2018-07-17T12:16:23.892Z,17.50
2018-07-17T12:18:50.884Z,17.10
2018-07-17T12:21:17.941Z,17.40
2018-07-17T12:23:44.933Z,18.90
2018-07-17T12:26:11.923Z,19.20
2018-07-17T12:28:38.952Z,18.40
2018-07-17T12:31:05.943Z,21.40
2018-07-17T12:33:32.929Z,21.60
2018-07-17T12:35:59.979Z,20.90
2018-07-17T12:38:26.967Z,20.00
2018-07-17T12:40:53.951Z,20.30
2018-07-17T12:43:20.983Z,19.80
2018-07-17T12:45:47.978Z,20.00
2018-07-17T12:48:14.976Z,18.50
2018-07-17T12:50:42.976Z,19.00
2018-07-17T12:53:09.964Z,17.70
2018-07-17T12:55:36.952Z,16.40
2018-07-17T12:58:04.060Z,13.20
2018-07-17T13:00:30.959Z,14.80
2018-07-17T13:02:57.957Z,13.70
2018-07-17T13:05:25.006Z,12.70
2018-07-17T13:07:51.984Z,14.50
2018-07-17T13:10:18.975Z,15.10
2018-07-17T13:12:46.036Z,16.00
2018-07-17T13:17:40.813Z,17.30
2018-07-17T13:20:07.793Z,17.90
2018-07-17T13:27:40.394Z,22.10
2018-07-17T13:30:07.374Z,22.20
2018-07-17T13:32:34.360Z,22.40
2018-07-17T13:35:01.397Z,23.30
2018-07-17T13:37:28.381Z,24.60
2018-07-17T13:39:55.366Z,23.20
2018-07-17T13:42:22.419Z,25.20
2018-07-17T13:44:49.476Z,22.80
2018-07-17T13:49:43.511Z,22.10
2018-07-17T13:52:10.506Z,21.00
2018-07-17T13:54:37.501Z,21.10
2018-07-17T13:57:04.545Z,20.00
2018-07-17T14:01:58.626Z,20.20
2018-07-17T14:04:25.670Z,19.90
2018-07-17T14:06:52.739Z,19.50
2018-07-17T14:09:19.693Z,18.90
2018-07-17T14:11:46.760Z,19.20
2018-07-17T14:14:13.750Z,19.70
2018-07-17T14:16:40.754Z,20.60
2018-07-17T14:19:07.787Z,21.30
2018-07-17T14:21:34.787Z,21.40
2018-07-17T14:24:01.768Z,20.30
2018-07-17T14:26:29.636Z,19.30
2018-07-17T14:28:56.620Z,20.30
2018-07-17T14:31:23.606Z,20.00
2018-07-17T14:36:28.599Z,21.10
2018-07-17T14:38:56.455Z,20.70
2018-07-17T14:41:23.507Z,20.10
2018-07-17T14:43:50.435Z,20.00
2018-07-17T14:46:17.465Z,17.40
2018-07-17T14:48:44.453Z,19.90
2018-07-17T14:51:11.447Z,15.70
2018-07-17T14:53:38.488Z,17.00
2018-07-17T14:58:32.605Z,17.30
2018-07-17T15:00:59.628Z,17.80
2018-07-17T15:03:26.611Z,18.50
2018-07-17T15:05:53.602Z,17.70
2018-07-17T15:08:20.637Z,19.20
2018-07-17T15:10:47.617Z,14.60
2018-07-17T15:13:14.608Z,17.10
2018-07-17T15:15:41.728Z,16.60
2018-07-17T15:18:08.650Z,13.40
2018-07-17T15:20:35.645Z,14.20
2018-07-17T15:23:02.665Z,13.70
2018-07-17T15:25:30.555Z,14.10
2018-07-17T15:27:57.576Z,15.40
2018-07-17T15:30:24.595Z,16.50
2018-07-17T15:32:51.585Z,17.60
2018-07-17T15:35:18.623Z,18.90
2018-07-17T15:37:45.614Z,18.50
2018-07-17T15:42:39.669Z,19.30
2018-07-17T15:45:06.729Z,19.20
2018-07-17T15:50:13.242Z,18.20
2018-07-17T15:52:40.230Z,18.50
2018-07-17T15:55:07.213Z,18.80
2018-07-17T15:57:34.358Z,18.40
2018-07-17T16:00:01.263Z,17.90
2018-07-17T16:02:28.248Z,18.10
2018-07-17T16:04:55.274Z,17.60
2018-07-17T16:07:22.251Z,16.40
2018-07-17T16:09:49.229Z,15.40
2018-07-17T16:12:16.264Z,15.50
2018-07-17T16:14:43.244Z,15.20
2018-07-17T16:17:10.225Z,16.50
2018-07-17T16:19:37.288Z,17.40
2018-07-17T16:22:04.273Z,18.40
2018-07-17T16:24:31.263Z,18.80
2018-07-17T16:31:52.491Z,17.30
2018-07-17T16:34:19.522Z,17.00
2018-07-17T16:36:46.546Z,16.50
2018-07-17T16:39:13.496Z,16.40
2018-07-17T16:41:40.548Z,15.80
2018-07-17T16:44:07.531Z,15.80
2018-07-17T16:49:01.652Z,15.60
2018-07-17T16:51:28.642Z,14.90
2018-07-17T16:56:34.182Z,14.70
2018-07-17T16:59:01.170Z,14.20
2018-07-17T17:03:55.320Z,15.10
2018-07-17T17:06:22.333Z,15.20
2018-07-17T17:08:49.350Z,14.90
2018-07-17T17:11:16.396Z,14.50
2018-07-17T17:13:43.394Z,15.80
2018-07-17T17:16:10.409Z,15.90
2018-07-17T17:18:37.483Z,15.80
2018-07-17T17:21:04.474Z,16.70
2018-07-17T17:23:31.469Z,16.60
2018-07-17T17:25:58.870Z,16.90
2018-07-17T17:28:25.892Z,16.30
2018-07-17T17:30:52.884Z,17.20
2018-07-17T17:33:20.070Z,18.10
2018-07-17T17:35:47.925Z,18.60
2018-07-17T17:38:14.936Z,18.50
2018-07-17T17:43:09.919Z,18.90
2018-07-17T17:45:36.891Z,19.20
2018-07-17T17:48:03.977Z,18.90
2018-07-17T17:50:30.986Z,19.10
2018-07-17T17:55:26.068Z,19.00
2018-07-17T18:00:33.974Z,20.30
2018-07-17T18:03:00.961Z,20.40
2018-07-17T18:05:27.975Z,21.20
2018-07-17T18:07:55.241Z,20.10
2018-07-17T18:10:22.243Z,21.10
2018-07-17T18:12:49.271Z,21.30
2018-07-17T18:15:16.399Z,21.80
2018-07-17T18:17:43.400Z,21.90
2018-07-17T18:20:10.406Z,22.10
2018-07-17T18:22:37.460Z,22.30
2018-07-17T18:25:04.452Z,25.40
2018-07-17T18:27:31.434Z,22.50
2018-07-17T18:29:58.479Z,21.80
2018-07-17T18:32:25.521Z,24.80
2018-07-17T18:34:53.731Z,22.80
2018-07-17T18:37:20.942Z,22.30
2018-07-17T18:42:15.273Z,21.70
2018-07-17T18:44:42.512Z,23.00
2018-07-17T18:47:09.693Z,22.40
2018-07-17T18:49:37.938Z,22.20
2018-07-17T18:52:06.266Z,22.20
2018-07-17T18:54:33.697Z,21.50
2018-07-17T18:57:00.702Z,21.70
2018-07-17T19:02:07.566Z,21.70
2018-07-17T19:04:34.907Z,20.50
2018-07-17T19:07:01.874Z,20.50
2018-07-17T19:09:29.101Z,20.00
2018-07-17T19:14:34.784Z,20.70
2018-07-17T19:17:01.928Z,20.30
2018-07-17T19:19:29.276Z,20.50
2018-07-17T19:21:56.409Z,21.00
2018-07-17T19:24:23.900Z,20.00
2018-07-17T19:26:51.304Z,20.50
2018-07-17T19:29:18.369Z,21.20
2018-07-17T19:31:45.766Z,22.90
2018-07-17T19:34:13.012Z,22.30
2018-07-17T19:41:36.163Z,22.60
2018-07-17T19:44:04.211Z,22.00
2018-07-17T19:46:32.406Z,19.20
2018-07-17T19:49:00.575Z,22.60
2018-07-17T19:51:28.746Z,19.90
2018-07-17T19:53:56.638Z,22.10
2018-07-17T19:56:24.586Z,23.10
2018-07-17T19:58:52.649Z,23.30
2018-07-17T20:01:21.863Z,24.10
2018-07-17T20:03:50.707Z,23.40
2018-07-17T20:06:19.147Z,23.00
2018-07-17T20:08:46.816Z,23.70
2018-07-17T20:11:14.662Z,23.90
2018-07-17T20:13:42.461Z,22.80
2018-07-17T20:16:10.663Z,24.40
2018-07-17T20:18:38.543Z,24.60
2018-07-17T20:21:05.918Z,24.80
2018-07-17T20:23:33.354Z,24.50
2018-07-17T20:26:00.600Z,25.50
2018-07-17T20:28:27.960Z,25.60
2018-07-17T20:33:37.235Z,24.90
2018-07-17T20:36:04.372Z,25.20
2018-07-17T20:38:31.769Z,24.30
2018-07-17T20:40:58.834Z,25.50
2018-07-17T20:43:26.621Z,24.60
2018-07-17T20:45:53.830Z,24.90
2018-07-17T20:48:20.962Z,26.00
2018-07-17T20:50:47.989Z,26.00
2018-07-17T20:53:15.137Z,26.30
2018-07-17T20:58:20.426Z,26.00
2018-07-17T21:00:47.546Z,26.40
2018-07-17T21:03:14.655Z,26.00
2018-07-17T21:05:41.705Z,27.20
2018-07-17T21:08:08.709Z,27.70
2018-07-17T21:10:35.703Z,26.10
2018-07-17T21:13:02.808Z,27.30
2018-07-17T21:15:29.768Z,27.30
2018-07-17T21:17:56.766Z,28.20
2018-07-17T21:20:23.833Z,28.00
2018-07-17T21:22:50.825Z,28.20
2018-07-17T21:27:44.988Z,29.80
2018-07-17T21:30:11.980Z,31.30
2018-07-17T21:35:06.155Z,32.80
2018-07-17T21:40:11.406Z,31.40
2018-07-17T21:42:38.402Z,31.40
2018-07-17T21:45:05.401Z,30.10
2018-07-17T21:47:32.456Z,29.40
2018-07-17T21:49:59.447Z,28.90
2018-07-17T21:52:26.441Z,29.20
2018-07-17T21:54:53.483Z,30.10
2018-07-17T21:57:20.487Z,28.90
2018-07-17T21:59:47.491Z,30.20
2018-07-17T22:02:14.545Z,30.00
2018-07-17T22:04:42.306Z,30.20
2018-07-17T22:07:09.291Z,31.10
2018-07-17T22:09:36.460Z,30.90
2018-07-17T22:12:03.462Z,31.20
2018-07-17T22:14:30.456Z,32.20
2018-07-17T22:19:35.612Z,34.10
2018-07-17T22:22:02.647Z,35.00
2018-07-17T22:24:29.631Z,34.60
2018-07-17T22:26:56.624Z,34.20
2018-07-17T22:29:23.640Z,34.80
2018-07-17T22:31:50.977Z,35.30
2018-07-17T22:34:17.962Z,36.10
2018-07-17T22:36:45.022Z,35.40
2018-07-17T22:39:12.005Z,36.20
2018-07-17T22:41:38.997Z,37.50
2018-07-17T22:44:06.033Z,35.90
2018-07-17T22:46:33.009Z,35.20
2018-07-17T22:48:59.993Z,34.80
2018-07-17T22:51:27.059Z,33.50
2018-07-17T22:53:54.046Z,32.30
2018-07-17T22:56:21.024Z,32.60
2018-07-17T22:58:48.876Z,33.70
2018-07-17T23:01:15.863Z,33.40
2018-07-17T23:03:42.852Z,33.20
2018-07-17T23:06:10.692Z,33.60
2018-07-17T23:08:38.395Z,33.80
2018-07-17T23:11:05.388Z,34.20
2018-07-17T23:13:32.418Z,34.00
2018-07-17T23:15:59.400Z,35.50
2018-07-17T23:18:26.389Z,37.20
2018-07-17T23:20:53.438Z,37.40
2018-07-17T23:23:20.443Z,36.70
2018-07-17T23:25:47.426Z,36.10
2018-07-17T23:28:14.457Z,35.80
2018-07-17T23:33:09.252Z,36.80
2018-07-17T23:35:36.280Z,37.40
2018-07-17T23:40:41.803Z,37.30
2018-07-17T23:43:09.616Z,36.50
2018-07-17T23:48:03.713Z,35.50
2018-07-17T23:50:32.929Z,35.70
2018-07-17T23:55:27.028Z,35.90
2018-07-17T23:57:54.020Z,37.50
